createdAt,value
2019-02-07T00:01:21.207Z,11.60
2019-02-07T00:03:50.943Z,11.60
2019-02-07T00:06:20.920Z,11.60
2019-02-07T00:08:50.716Z,11.60
2019-02-07T00:11:20.738Z,11.60
2019-02-07T00:13:50.526Z,11.60
2019-02-07T00:16:21.583Z,11.50
2019-02-07T00:18:52.424Z,11.50
2019-02-07T00:21:22.547Z,11.50
2019-02-07T00:23:52.235Z,11.50
2019-02-07T00:26:22.037Z,11.40
2019-02-07T00:28:51.751Z,11.40
2019-02-07T00:31:21.610Z,11.40
2019-02-07T00:33:51.225Z,11.40
2019-02-07T00:36:21.326Z,11.40
2019-02-07T00:38:50.937Z,11.30
2019-02-07T00:41:20.671Z,11.30
2019-02-07T00:43:50.351Z,11.20
2019-02-07T00:46:20.042Z,11.20
2019-02-07T00:48:49.806Z,11.20
2019-02-07T00:51:19.890Z,11.20
2019-02-07T00:53:49.590Z,11.10
2019-02-07T00:56:19.271Z,11.10
2019-02-07T00:58:49.529Z,11.10
2019-02-07T01:01:19.175Z,11.10
2019-02-07T01:03:48.915Z,11.00
2019-02-07T01:06:18.659Z,11.00
2019-02-07T01:08:48.498Z,11.00
2019-02-07T01:11:18.487Z,11.00
2019-02-07T01:13:48.422Z,10.90
2019-02-07T01:16:18.027Z,10.90
2019-02-07T01:18:47.758Z,10.90
2019-02-07T01:21:17.515Z,10.90
2019-02-07T01:23:47.312Z,10.90
2019-02-07T01:26:17.271Z,10.90
2019-02-07T01:28:46.989Z,10.80
2019-02-07T01:31:16.675Z,10.80
2019-02-07T01:33:46.457Z,10.80
2019-02-07T01:36:16.232Z,10.70
2019-02-07T01:38:45.948Z,10.70
2019-02-07T01:41:15.693Z,10.70
2019-02-07T01:43:45.729Z,10.70
2019-02-07T01:46:15.433Z,10.70
2019-02-07T01:48:45.166Z,10.60
2019-02-07T01:51:14.857Z,10.60
2019-02-07T01:53:44.557Z,10.60
2019-02-07T01:56:14.338Z,10.60
2019-02-07T01:58:43.968Z,10.50
2019-02-07T02:01:13.675Z,10.50
2019-02-07T02:03:43.399Z,10.50
2019-02-07T02:06:13.137Z,10.50
2019-02-07T02:08:42.895Z,10.50
2019-02-07T02:11:13.102Z,10.50
2019-02-07T02:13:42.876Z,10.40
2019-02-07T02:16:12.674Z,10.40
2019-02-07T02:18:42.430Z,10.40
2019-02-07T02:21:12.238Z,10.40
2019-02-07T02:23:42.219Z,10.40
2019-02-07T02:26:12.199Z,10.40
2019-02-07T02:28:41.994Z,10.40
2019-02-07T02:31:11.787Z,10.40
2019-02-07T02:33:41.570Z,10.30
2019-02-07T02:36:11.480Z,10.30
2019-02-07T02:38:41.603Z,10.30
2019-02-07T02:41:11.355Z,10.30
2019-02-07T02:43:41.149Z,10.30
2019-02-07T02:46:10.935Z,10.20
2019-02-07T02:48:40.725Z,10.20
2019-02-07T02:51:10.474Z,10.20
2019-02-07T02:53:40.115Z,10.20
2019-02-07T02:56:09.893Z,10.20
2019-02-07T02:58:39.693Z,10.20
2019-02-07T03:01:17.109Z,10.20
2019-02-07T03:03:54.318Z,10.10
2019-02-07T03:06:25.943Z,10.10
2019-02-07T03:09:12.945Z,10.10
2019-02-07T03:11:56.528Z,10.10
2019-02-07T03:14:28.065Z,10.00
2019-02-07T03:16:59.419Z,10.00
2019-02-07T03:19:33.495Z,10.00
2019-02-07T03:22:04.906Z,10.00
2019-02-07T03:24:51.306Z,10.00
2019-02-07T03:27:38.761Z,10.00
2019-02-07T03:30:15.918Z,9.90
2019-02-07T03:32:52.995Z,9.90
2019-02-07T03:35:42.702Z,9.90
2019-02-07T03:38:22.886Z,9.90
2019-02-07T03:40:57.354Z,9.90
2019-02-07T03:43:44.993Z,9.90
2019-02-07T03:46:16.769Z,9.80
2019-02-07T03:48:48.418Z,9.80
2019-02-07T03:51:28.423Z,9.80
2019-02-07T03:54:16.495Z,9.80
2019-02-07T03:56:47.902Z,9.80
2019-02-07T03:59:24.693Z,9.70
2019-02-07T04:02:11.009Z,9.70
2019-02-07T04:04:48.530Z,9.70
2019-02-07T04:07:37.186Z,9.70
2019-02-07T04:10:18.465Z,9.70
2019-02-07T04:12:49.807Z,9.70
2019-02-07T04:15:37.309Z,9.70
2019-02-07T04:18:20.665Z,9.60
2019-02-07T04:20:52.319Z,9.60
2019-02-07T04:23:23.731Z,9.60
2019-02-07T04:26:11.599Z,9.60
2019-02-07T04:31:54.000Z,9.50
2019-02-07T04:34:37.471Z,9.50
2019-02-07T04:37:08.843Z,9.50
2019-02-07T04:39:42.899Z,9.50
2019-02-07T04:42:32.143Z,9.50
2019-02-07T04:45:06.738Z,9.40
2019-02-07T04:47:43.962Z,9.40
2019-02-07T04:50:24.544Z,9.40
2019-02-07T04:53:12.132Z,9.40
2019-02-07T04:55:55.173Z,9.40
2019-02-07T04:58:26.607Z,9.40
2019-02-07T05:00:57.874Z,9.30
2019-02-07T05:06:46.013Z,9.30
2019-02-07T05:09:17.301Z,9.30
2019-02-07T05:11:51.568Z,9.30
2019-02-07T05:14:26.175Z,9.30
2019-02-07T05:17:14.081Z,9.30
2019-02-07T05:20:02.022Z,9.30
2019-02-07T05:22:49.740Z,9.30
2019-02-07T05:25:23.784Z,9.20
2019-02-07T05:27:57.981Z,9.20
2019-02-07T05:30:29.325Z,9.20
2019-02-07T05:33:09.547Z,9.20
2019-02-07T05:35:53.047Z,9.20
2019-02-07T05:38:41.194Z,9.20
2019-02-07T05:41:15.337Z,9.20
2019-02-07T05:44:03.004Z,9.20
2019-02-07T05:46:50.747Z,9.20
2019-02-07T05:49:29.067Z,9.20
2019-02-07T05:52:09.192Z,9.20
2019-02-07T05:54:43.484Z,9.20
2019-02-07T05:57:27.167Z,9.20
2019-02-07T06:00:16.976Z,9.20
2019-02-07T06:02:54.312Z,9.20
2019-02-07T06:05:25.575Z,9.20
2019-02-07T06:07:56.919Z,9.20
2019-02-07T06:10:40.456Z,9.20
2019-02-07T06:13:20.895Z,9.20
2019-02-07T06:16:10.665Z,9.20
2019-02-07T06:18:44.607Z,9.10
2019-02-07T06:21:19.077Z,9.10
2019-02-07T06:24:06.832Z,9.10
2019-02-07T06:26:44.254Z,9.10
2019-02-07T06:29:40.534Z,9.10
2019-02-07T06:32:28.536Z,9.10
2019-02-07T06:35:03.030Z,9.10
2019-02-07T06:37:46.285Z,9.10
2019-02-07T06:40:28.203Z,9.00
2019-02-07T06:42:59.639Z,9.10
2019-02-07T06:45:37.029Z,9.70
2019-02-07T06:51:07.236Z,9.90
2019-02-07T06:53:38.913Z,9.70
2019-02-07T06:56:16.389Z,9.60
2019-02-07T06:59:02.921Z,9.50
2019-02-07T07:01:36.995Z,9.40
2019-02-07T07:04:10.948Z,9.40
2019-02-07T07:06:58.603Z,9.40
2019-02-07T07:09:46.547Z,9.40
2019-02-07T07:12:17.881Z,9.30
2019-02-07T07:14:58.133Z,9.30
2019-02-07T07:17:29.483Z,9.30
2019-02-07T07:20:15.967Z,9.30
2019-02-07T07:22:56.375Z,9.30
2019-02-07T07:25:44.123Z,9.30
2019-02-07T07:28:21.341Z,9.30
2019-02-07T07:30:55.711Z,9.30
2019-02-07T07:33:27.003Z,9.30
2019-02-07T07:36:04.288Z,9.30
2019-02-07T07:38:51.595Z,9.40
2019-02-07T07:41:23.037Z,9.40
2019-02-07T07:44:06.460Z,9.40
2019-02-07T07:46:37.787Z,9.60
2019-02-07T07:49:25.958Z,9.80
2019-02-07T07:52:06.505Z,10.00
2019-02-07T07:54:37.884Z,10.10
2019-02-07T07:57:25.629Z,10.30
2019-02-07T08:00:00.026Z,10.50
2019-02-07T08:02:43.988Z,10.80
2019-02-07T08:05:18.247Z,11.00
2019-02-07T08:08:05.770Z,11.30
2019-02-07T08:10:39.828Z,11.50
2019-02-07T08:13:14.194Z,11.70
2019-02-07T08:15:48.594Z,11.80
2019-02-07T08:18:25.767Z,11.90
2019-02-07T08:20:57.133Z,12.00
2019-02-07T08:23:38.086Z,12.30
2019-02-07T08:26:09.553Z,12.40
2019-02-07T08:28:40.957Z,12.50
2019-02-07T08:31:18.337Z,12.60
2019-02-07T08:34:05.799Z,12.70
2019-02-07T08:36:53.368Z,12.70
2019-02-07T08:39:30.926Z,12.90
2019-02-07T08:42:20.795Z,13.00
2019-02-07T08:45:04.440Z,13.10
2019-02-07T08:47:35.826Z,13.20
2019-02-07T08:50:19.596Z,13.40
2019-02-07T08:53:07.283Z,13.50
2019-02-07T08:55:47.356Z,13.60
2019-02-07T08:58:18.732Z,13.70
2019-02-07T09:00:58.881Z,13.80
2019-02-07T09:03:32.987Z,13.90
2019-02-07T09:06:12.847Z,14.10
2019-02-07T09:09:00.722Z,14.10
2019-02-07T09:11:48.463Z,14.20
2019-02-07T09:14:19.875Z,14.30
2019-02-07T09:23:01.562Z,14.40
2019-02-07T09:25:35.628Z,14.50
2019-02-07T09:28:16.025Z,14.60
2019-02-07T09:30:53.495Z,14.70
2019-02-07T09:33:30.863Z,14.80
2019-02-07T09:36:17.356Z,14.90
2019-02-07T09:39:01.211Z,15.00
2019-02-07T09:41:38.364Z,15.10
2019-02-07T09:44:27.615Z,15.10
2019-02-07T09:47:01.761Z,15.20
2019-02-07T09:49:33.200Z,15.40
2019-02-07T09:52:10.476Z,15.50
2019-02-07T09:54:53.963Z,15.60
2019-02-07T09:57:31.406Z,15.70
2019-02-07T10:00:15.211Z,15.80
2019-02-07T10:02:58.770Z,16.00
2019-02-07T10:05:39.670Z,16.10
2019-02-07T10:08:27.977Z,16.20
2019-02-07T10:11:00.066Z,16.20
2019-02-07T10:13:46.486Z,16.30
2019-02-07T10:16:17.824Z,16.50
2019-02-07T10:18:49.178Z,16.60
2019-02-07T10:21:23.743Z,16.70
2019-02-07T10:23:55.300Z,16.80
2019-02-07T10:26:27.125Z,17.00
2019-02-07T10:28:58.647Z,17.20
2019-02-07T10:31:29.977Z,17.30
2019-02-07T10:34:10.717Z,17.60
2019-02-07T10:36:58.574Z,18.00
2019-02-07T10:39:49.262Z,18.40
2019-02-07T10:42:21.323Z,18.80
2019-02-07T10:45:09.301Z,19.30
2019-02-07T10:47:40.933Z,19.60
2019-02-07T10:50:37.638Z,19.90
2019-02-07T10:53:09.165Z,20.10
2019-02-07T10:55:40.693Z,20.10
2019-02-07T10:58:17.955Z,20.30
2019-02-07T11:01:08.539Z,20.40
2019-02-07T11:03:51.806Z,20.30
2019-02-07T11:06:23.288Z,20.50
2019-02-07T11:08:58.051Z,20.50
2019-02-07T11:11:41.462Z,20.50
2019-02-07T11:14:29.195Z,20.60
2019-02-07T11:17:03.888Z,20.60
2019-02-07T11:19:41.105Z,20.40
2019-02-07T11:22:27.852Z,20.50
2019-02-07T11:24:59.228Z,20.30
2019-02-07T11:27:39.311Z,20.30
2019-02-07T11:30:21.127Z,20.20
2019-02-07T11:32:55.296Z,20.00
2019-02-07T11:35:42.919Z,19.80
2019-02-07T11:38:19.286Z,19.50
2019-02-07T11:41:00.035Z,19.30
2019-02-07T11:43:36.963Z,19.10
2019-02-07T11:46:17.579Z,19.00
2019-02-07T11:48:51.659Z,18.90
2019-02-07T11:51:23.041Z,18.90
2019-02-07T11:53:57.334Z,18.90
2019-02-07T11:56:29.908Z,18.90
2019-02-07T11:59:01.325Z,18.80
2019-02-07T12:01:41.391Z,18.80
2019-02-07T12:04:22.825Z,18.80
2019-02-07T12:06:57.343Z,18.70
2019-02-07T12:09:40.498Z,18.70
2019-02-07T12:12:30.450Z,18.60
2019-02-07T12:15:01.865Z,18.60
2019-02-07T12:17:36.499Z,18.50
2019-02-07T12:20:11.133Z,18.50
2019-02-07T12:23:00.181Z,18.50
2019-02-07T12:25:34.480Z,18.50
2019-02-07T12:28:11.583Z,18.40
2019-02-07T12:30:52.298Z,18.40
2019-02-07T12:33:34.457Z,18.30
2019-02-07T12:36:09.291Z,18.30
2019-02-07T12:38:46.525Z,18.20
2019-02-07T12:41:18.087Z,18.20
2019-02-07T12:44:07.706Z,18.10
2019-02-07T12:46:51.498Z,18.10
2019-02-07T12:49:39.356Z,18.00
2019-02-07T12:52:16.888Z,17.90
2019-02-07T12:54:48.372Z,17.80
2019-02-07T12:57:25.783Z,17.80
2019-02-07T12:59:57.213Z,17.80
2019-02-07T13:02:48.562Z,17.70
2019-02-07T13:05:37.034Z,17.70
2019-02-07T13:08:08.418Z,17.70
2019-02-07T13:10:42.184Z,17.60
2019-02-07T13:13:29.833Z,17.60
2019-02-07T13:16:06.978Z,17.50
2019-02-07T13:18:47.886Z,17.50
2019-02-07T13:21:34.604Z,17.40
2019-02-07T13:24:06.219Z,17.40
2019-02-07T13:26:49.858Z,17.40
2019-02-07T13:29:27.319Z,17.40
2019-02-07T13:32:08.137Z,17.40
2019-02-07T13:34:42.307Z,17.40
2019-02-07T13:37:13.758Z,17.40
2019-02-07T13:39:51.530Z,17.50
2019-02-07T13:42:35.025Z,17.50
2019-02-07T13:45:09.339Z,17.50
2019-02-07T13:47:46.945Z,17.50
2019-02-07T13:50:35.192Z,17.50
2019-02-07T13:53:09.904Z,17.50
2019-02-07T13:55:50.253Z,17.40
2019-02-07T13:58:36.769Z,17.40
2019-02-07T14:01:08.362Z,17.30
2019-02-07T14:03:45.906Z,17.30
2019-02-07T14:06:17.297Z,17.30
2019-02-07T14:08:48.662Z,17.20
2019-02-07T14:11:19.963Z,17.20
2019-02-07T14:14:00.038Z,17.20
2019-02-07T14:16:46.907Z,17.10
2019-02-07T14:19:21.347Z,17.10
2019-02-07T14:22:10.890Z,17.00
2019-02-07T14:24:58.639Z,16.90
2019-02-07T14:27:42.012Z,16.80
2019-02-07T14:30:15.351Z,16.70
2019-02-07T14:33:04.986Z,16.60
2019-02-07T14:35:36.711Z,16.50
2019-02-07T14:38:24.562Z,16.40
2019-02-07T14:41:12.113Z,16.40
2019-02-07T14:43:49.601Z,16.30
2019-02-07T14:46:20.861Z,16.20
2019-02-07T14:48:50.609Z,16.10
2019-02-07T14:51:20.323Z,16.00
2019-02-07T14:53:50.028Z,15.90
2019-02-07T14:56:19.938Z,15.70
2019-02-07T14:58:50.017Z,15.30
2019-02-07T15:01:19.778Z,14.90
2019-02-07T15:03:49.556Z,15.20
2019-02-07T15:06:19.393Z,15.40
2019-02-07T15:08:49.124Z,15.50
2019-02-07T15:11:18.889Z,15.50
2019-02-07T15:13:49.145Z,15.40
2019-02-07T15:16:18.950Z,15.30
2019-02-07T15:18:48.654Z,15.20
2019-02-07T15:21:18.419Z,15.10
2019-02-07T15:23:48.108Z,15.00
2019-02-07T15:26:19.855Z,14.90
2019-02-07T15:28:49.933Z,14.80
2019-02-07T15:31:20.300Z,14.70
2019-02-07T15:33:50.093Z,14.60
2019-02-07T15:36:19.962Z,14.60
2019-02-07T15:39:09.585Z,14.50
2019-02-07T15:41:39.857Z,14.40
2019-02-07T15:44:09.898Z,14.40
2019-02-07T15:46:40.225Z,14.30
2019-02-07T15:49:10.109Z,14.30
2019-02-07T15:51:39.914Z,14.20
2019-02-07T15:54:10.204Z,14.20
2019-02-07T15:56:40.037Z,14.20
2019-02-07T15:59:17.711Z,14.10
2019-02-07T16:01:52.422Z,14.00
2019-02-07T16:04:24.304Z,14.00
2019-02-07T16:06:54.065Z,13.90
2019-02-07T16:09:23.860Z,13.80
2019-02-07T16:11:53.670Z,13.70
2019-02-07T16:14:23.460Z,13.70
2019-02-07T16:16:53.312Z,13.60
2019-02-07T16:19:23.837Z,13.60
2019-02-07T16:21:56.054Z,13.60
2019-02-07T16:24:26.688Z,13.50
2019-02-07T16:26:56.493Z,13.40
2019-02-07T16:29:26.898Z,13.40
2019-02-07T16:31:57.418Z,13.30
2019-02-07T16:34:27.279Z,13.30
2019-02-07T16:36:57.333Z,13.30
2019-02-07T16:39:27.873Z,13.20
2019-02-07T16:42:05.778Z,13.20
2019-02-07T16:44:29.624Z,13.20
2019-02-07T16:46:59.530Z,13.20
2019-02-07T16:49:29.350Z,13.10
2019-02-07T16:51:59.291Z,13.00
2019-02-07T16:54:29.045Z,13.00
2019-02-07T16:56:58.772Z,13.00
2019-02-07T16:59:28.900Z,12.90
2019-02-07T17:01:58.681Z,12.90
2019-02-07T17:04:28.459Z,12.90
2019-02-07T17:06:58.228Z,12.80
2019-02-07T17:09:28.902Z,12.80
2019-02-07T17:12:00.924Z,12.80
2019-02-07T17:14:30.336Z,12.80
2019-02-07T17:17:00.096Z,12.70
2019-02-07T17:19:29.906Z,12.60
2019-02-07T17:21:59.688Z,12.60
2019-02-07T17:24:29.551Z,12.60
2019-02-07T17:26:59.364Z,12.60
2019-02-07T17:29:29.236Z,12.50
2019-02-07T17:31:59.037Z,12.50
2019-02-07T17:34:28.821Z,12.50
2019-02-07T17:36:58.637Z,12.50
2019-02-07T17:39:28.457Z,12.40
2019-02-07T17:41:59.566Z,12.40
2019-02-07T17:44:29.525Z,12.40
2019-02-07T17:46:59.380Z,12.40
2019-02-07T17:49:29.798Z,12.40
2019-02-07T17:52:01.191Z,12.30
2019-02-07T17:54:31.351Z,12.30
2019-02-07T17:57:01.599Z,12.20
2019-02-07T17:59:31.514Z,12.20
2019-02-07T18:02:01.359Z,12.20
2019-02-07T18:04:31.266Z,12.20
2019-02-07T18:07:01.044Z,12.20
2019-02-07T18:09:30.769Z,12.10
2019-02-07T18:12:00.777Z,12.10
2019-02-07T18:14:30.407Z,12.10
2019-02-07T18:17:00.114Z,12.10
2019-02-07T18:19:29.832Z,12.00
2019-02-07T18:22:00.726Z,12.00
2019-02-07T18:24:30.519Z,12.00
2019-02-07T18:27:00.461Z,12.00
2019-02-07T18:29:30.152Z,12.00
2019-02-07T18:31:59.800Z,12.00
2019-02-07T18:34:29.652Z,11.90
2019-02-07T18:36:59.349Z,11.90
2019-02-07T18:39:30.844Z,11.90
2019-02-07T18:42:01.002Z,11.90
2019-02-07T18:44:30.918Z,11.90
2019-02-07T18:47:00.634Z,11.90
2019-02-07T18:49:30.351Z,11.80
2019-02-07T18:52:00.618Z,11.80
2019-02-07T18:54:30.483Z,11.80
2019-02-07T18:57:00.164Z,11.80
2019-02-07T18:59:29.971Z,11.70
2019-02-07T19:01:59.651Z,11.70
2019-02-07T19:04:29.478Z,11.70
2019-02-07T19:06:59.105Z,11.70
2019-02-07T19:09:28.815Z,11.70
2019-02-07T19:11:59.088Z,11.70
2019-02-07T19:14:28.857Z,11.60
2019-02-07T19:16:58.541Z,11.60
2019-02-07T19:19:28.253Z,11.60
2019-02-07T19:21:58.157Z,11.60
2019-02-07T19:24:27.787Z,11.60
2019-02-07T19:26:57.584Z,11.60
2019-02-07T19:29:27.313Z,11.60
2019-02-07T19:31:57.091Z,11.60
2019-02-07T19:34:26.835Z,11.60
2019-02-07T19:36:56.636Z,11.60
2019-02-07T19:39:26.345Z,11.50
2019-02-07T19:41:56.045Z,11.50
2019-02-07T19:44:25.737Z,11.50
2019-02-07T19:46:55.502Z,11.50
2019-02-07T19:49:25.431Z,11.50
2019-02-07T19:51:55.078Z,11.50
2019-02-07T19:54:24.781Z,11.50
2019-02-07T19:56:54.846Z,11.50
2019-02-07T19:59:24.542Z,11.50
2019-02-07T20:01:54.292Z,11.50
2019-02-07T20:04:24.172Z,11.50
2019-02-07T20:06:53.876Z,11.50
2019-02-07T20:09:23.651Z,11.50
2019-02-07T20:11:53.403Z,11.50
2019-02-07T20:14:23.231Z,11.40
2019-02-07T20:16:52.916Z,11.40
2019-02-07T20:19:22.782Z,11.40
2019-02-07T20:21:52.535Z,11.40
2019-02-07T20:24:22.579Z,11.40
2019-02-07T20:26:52.413Z,11.40
2019-02-07T20:29:22.343Z,11.40
2019-02-07T20:31:52.095Z,11.40
2019-02-07T20:34:21.778Z,11.40
2019-02-07T20:36:51.563Z,11.40
2019-02-07T20:39:21.326Z,11.30
2019-02-07T20:41:51.395Z,11.30
2019-02-07T20:44:21.167Z,11.30
2019-02-07T20:46:50.863Z,11.30
2019-02-07T20:49:20.577Z,11.30
2019-02-07T20:51:50.924Z,11.30
2019-02-07T20:54:20.631Z,11.30
2019-02-07T20:56:51.011Z,11.30
2019-02-07T20:59:20.878Z,11.30
2019-02-07T21:01:50.662Z,11.30
2019-02-07T21:04:20.429Z,11.20
2019-02-07T21:06:50.136Z,11.30
2019-02-07T21:09:19.959Z,11.20
2019-02-07T21:11:49.602Z,11.20
2019-02-07T21:14:20.798Z,11.20
2019-02-07T21:16:50.475Z,11.20
2019-02-07T21:19:20.317Z,11.20
2019-02-07T21:21:50.002Z,11.20
2019-02-07T21:24:19.806Z,11.20
2019-02-07T21:26:49.585Z,11.20
2019-02-07T21:29:19.570Z,11.20
2019-02-07T21:31:49.351Z,11.20
2019-02-07T21:34:18.998Z,11.20
2019-02-07T21:36:48.635Z,11.10
2019-02-07T21:39:18.412Z,11.10
2019-02-07T21:41:48.205Z,11.10
2019-02-07T21:44:17.805Z,11.10
2019-02-07T21:46:47.793Z,11.10
2019-02-07T21:49:17.484Z,11.10
2019-02-07T21:51:47.202Z,11.10
2019-02-07T21:54:16.929Z,11.20
2019-02-07T21:56:47.494Z,11.20
2019-02-07T21:59:17.268Z,11.20
2019-02-07T22:01:47.017Z,11.20
2019-02-07T22:04:16.765Z,11.10
2019-02-07T22:06:46.399Z,11.20
2019-02-07T22:09:16.194Z,11.10
2019-02-07T22:11:45.903Z,11.10
2019-02-07T22:14:15.714Z,11.10
2019-02-07T22:16:45.446Z,11.10
2019-02-07T22:19:15.206Z,11.10
2019-02-07T22:21:44.896Z,11.10
2019-02-07T22:24:14.678Z,11.10
2019-02-07T22:26:44.896Z,11.10
2019-02-07T22:29:14.671Z,11.10
2019-02-07T22:31:44.444Z,11.10
2019-02-07T22:34:14.137Z,11.10
2019-02-07T22:36:43.851Z,11.10
2019-02-07T22:39:13.571Z,11.00
2019-02-07T22:41:43.451Z,11.00
2019-02-07T22:44:13.066Z,11.00
2019-02-07T22:46:42.755Z,11.00
2019-02-07T22:49:12.576Z,11.00
2019-02-07T22:51:42.469Z,11.00
2019-02-07T22:54:12.106Z,11.00
2019-02-07T22:56:46.145Z,11.00
2019-02-07T22:59:16.101Z,11.00
2019-02-07T23:01:47.478Z,11.00
2019-02-07T23:04:17.223Z,11.00
2019-02-07T23:06:46.939Z,11.00
2019-02-07T23:09:17.450Z,11.00
2019-02-07T23:11:47.347Z,11.00
2019-02-07T23:14:17.380Z,11.00
2019-02-07T23:16:47.181Z,10.90
2019-02-07T23:19:16.872Z,10.90
2019-02-07T23:21:46.595Z,10.90
2019-02-07T23:24:16.387Z,10.90
2019-02-07T23:26:46.214Z,10.90
2019-02-07T23:29:15.902Z,10.90
2019-02-07T23:31:45.718Z,10.90
2019-02-07T23:34:15.511Z,10.90
2019-02-07T23:36:45.320Z,10.90
2019-02-07T23:39:15.038Z,10.90
2019-02-07T23:41:44.796Z,10.90
2019-02-07T23:44:14.525Z,10.90
2019-02-07T23:46:44.303Z,10.90
2019-02-07T23:49:17.001Z,10.90
2019-02-07T23:51:46.816Z,10.90
2019-02-07T23:54:16.570Z,10.80
2019-02-07T23:56:46.159Z,10.80
2019-02-07T23:59:15.879Z,10.80
